Terminal Aerodrome Forecast
Issued by NWS

Home | Current Version | Previous Version | Text Only | Print | Product List | Glossary On
Versions: 1 2 3 4 5 6 7 8 9 10 11 12 13 14 15 16 17 18 19
000
FTUS46 KOTX 231448 AAA
TAFSFF
TAF AMD
KSFF 231448Z 2315/2412 VRB03KT P6SM BKN060 OVC150
     FM232200 06005KT 6SM -RASN OVC030
     FM240200 04004KT 3SM -SNRA OVC015
     FM240800 06005KT 5SM -RA BKN025 OVC040=

USA.gov is the U.S. government's official web portal to all federal, state and local government web resources and services.